Time;durP1;ratioP1;P1;durP2;ratioP2;P2;SDS_P1;SDS_P2;PMS_P1;PMS_P2;Temp;Humidity;BMP_temperature;BMP_pressure;BME280_temperature;BME280_humidity;BME280_pressure;Samples;Min_cycle;Max_cycle;Signal;HPM_P1;HPM_P2
2022/10/30 00:00:08;;;;;;;;;;;;;;;;;;351414;28;936;-65
2022/10/30 00:00:18;;;;;;;;;;;;;;;;;;351482;28;997;-65
2022/10/30 00:00:29;;;;;;;;;;;;;;;;;;351479;28;850;-65
2022/10/30 00:00:39;;;;;;;;;;;;;;;;;;351449;28;964;-65
2022/10/30 00:00:50;;;;;;;;;;;;;;;;;;351471;28;924;-65
2022/10/30 00:01:00;;;;;;;;;;;;;;;;;;351467;28;980;-66
2022/10/30 00:01:10;;;;;;;;;;;;;;;;;;351454;28;825;-65
2022/10/30 00:01:20;;;;;;;;;;;;;;;;;;351514;28;909;-65
2022/10/30 00:01:31;;;;;;;;;;;;;;;;;;351448;28;975;-65
2022/10/30 00:01:42;;;;;;;;;;;;;;;;;;351408;28;975;-66
2022/10/30 00:01:52;;;;;;;;;;;;;;;;;;351414;28;999;-65
2022/10/30 00:02:03;;;;;;;;;;;;;;;;;;351508;28;825;-65
2022/10/30 00:02:13;;;;;;;;;;;;;;;;;;351224;28;1296;-65
2022/10/30 00:02:23;;;;;;;;;;;;;;;;;;351481;28;971;-65
2022/10/30 00:02:33;;;;;;;;;;;;;;;;;;351448;28;952;-65
2022/10/30 00:02:45;;;;;;;;;;;;;;;;;;351466;28;792;-65
2022/10/30 00:02:56;;;;;;;;;;;;;;;;;;351463;28;1003;-65
2022/10/30 00:03:09;;;;;;;;;;;;;;;;;;351535;28;1050;-65
2022/10/30 00:03:19;;;;;;;;;;;;;;;;;;351424;28;967;-65
2022/10/30 00:03:29;;;;;;;;;;;;;;;;;;351478;28;955;-65
2022/10/30 00:03:39;;;;;;;;;;;;;;;;;;351410;28;837;-66
2022/10/30 00:03:50;;;;;;;;;;;;;;;;;;350083;28;1506;-65
2022/10/30 00:04:00;;;;;;;;;;;;;;;;;;350054;28;754;-65
2022/10/30 00:04:10;;;;;;;;;;;;;;;;;;350062;28;972;-65
2022/10/30 00:04:20;;;;;;;;;;;;;;;;;;349900;28;1231;-66
2022/10/30 00:04:31;;;;;;;;;;;;;;;;;;349994;28;1971;-65
2022/10/30 00:04:41;;;;;;;;;;;;;;;;;;350065;28;873;-65
2022/10/30 00:04:51;;;;;;;;;;;;;;;;;;350018;28;909;-65
2022/10/30 00:05:02;;;;;;;;;;;;;;;;;;350049;28;888;-65
2022/10/30 00:05:12;;;;;;;;;;;;;;;;;;350041;28;938;-65
2022/10/30 00:05:22;;;;;;;;;;;;;;;;;;350069;28;968;-65
2022/10/30 00:05:32;;;;;;;;;;;;;;;;;;350071;28;929;-65
2022/10/30 00:05:44;;;;;;;;;;;;;;;;;;350059;28;782;-65
2022/10/30 00:05:54;;;;;;;;;;;;;;;;;;350092;28;930;-65
2022/10/30 00:06:07;;;;;;;;;;;;;;;;;;350023;28;802;-65
2022/10/30 00:06:17;;;;;;;;;;;;;;;;;;350054;28;929;-65
2022/10/30 00:06:28;;;;;;;;;;;;;;;;;;350051;28;838;-65
2022/10/30 00:06:38;;;;;;;;;;;;;;;;;;350043;28;984;-65
2022/10/30 00:06:48;;;;;;;;;;;;;;;;;;350088;28;897;-65
2022/10/30 00:06:58;;;;;;;;;;;;;;;;;;350048;28;909;-66
2022/10/30 00:07:08;;;;;;;;;;;;;;;;;;350041;28;784;-66
2022/10/30 00:07:19;;;;;;;;;;;;;;;;;;350110;28;1024;-65
2022/10/30 00:07:29;;;;;;;;;;;;;;;;;;350031;28;1101;-65
2022/10/30 00:07:39;;;;;;;;;;;;;;;;;;350061;28;912;-65
2022/10/30 00:07:49;;;;;;;;;;;;;;;;;;350041;28;909;-65
2022/10/30 00:08:00;;;;;;;;;;;;;;;;;;350054;28;952;-65
2022/10/30 00:08:11;;;;;;;;;;;;;;;;;;350060;28;818;-65
2022/10/30 00:08:21;;;;;;;;;;;;;;;;;;350010;28;968;-65
2022/10/30 00:08:32;;;;;;;;;;;;;;;;;;350095;28;907;-65
2022/10/30 00:08:42;;;;;;;;;;;;;;;;;;350056;28;790;-65
2022/10/30 00:08:52;;;;;;;;;;;;;;;;;;350069;28;996;-65
2022/10/30 00:09:03;;;;;;;;;;;;;;;;;;350069;28;976;-65
2022/10/30 00:09:13;;;;;;;;;;;;;;;;;;350024;28;1210;-65
2022/10/30 00:09:23;;;;;;;;;;;;;;;;;;350076;28;924;-65
2022/10/30 00:09:33;;;;;;;;;;;;;;;;;;350058;28;936;-66
2022/10/30 00:09:44;;;;;;;;;;;;;;;;;;350010;28;1008;-65
2022/10/30 00:09:54;;;;;;;;;;;;;;;;;;350044;28;1016;-65
2022/10/30 00:10:04;;;;;;;;;;;;;;;;;;350012;28;960;-65
2022/10/30 00:10:15;;;;;;;;;;;;;;;;;;350031;28;834;-65
2022/10/30 00:10:25;;;;;;;;;;;;;;;;;;350086;28;920;-65
2022/10/30 00:10:35;;;;;;;;;;;;;;;;;;349802;28;1461;-65
2022/10/30 00:10:46;;;;;;;;;;;;;;;;;;350028;28;1008;-65
2022/10/30 00:11:03;;;;;;;;;;;;;;;;;;350085;28;861;-65
2022/10/30 00:11:13;;;;;;;;;;;;;;;;;;350084;28;833;-65
2022/10/30 00:11:23;;;;;;;;;;;;;;;;;;350056;28;967;-65
2022/10/30 00:11:33;;;;;;;;;;;;;;;;;;350044;28;697;-66
2022/10/30 00:11:43;;;;;;;;;;;;;;;;;;350053;28;897;-66
2022/10/30 00:11:54;;;;;;;;;;;;;;;;;;350058;28;988;-65
2022/10/30 00:12:04;;;;;;;;;;;;;;;;;;350013;28;1133;-65
2022/10/30 00:12:14;;;;;;;;;;;;;;;;;;350058;28;813;-65
2022/10/30 00:12:24;;;;;;;;;;;;;;;;;;350000;28;999;-66
2022/10/30 00:12:35;;;;;;;;;;;;;;;;;;349683;28;1363;-66
2022/10/30 00:12:45;;;;;;;;;;;;;;;;;;350054;28;944;-66
2022/10/30 00:12:55;;;;;;;;;;;;;;;;;;350103;28;817;-65
2022/10/30 00:13:05;;;;;;;;;;;;;;;;;;350059;28;833;-65
2022/10/30 00:13:16;;;;;;;;;;;;;;;;;;349997;28;920;-65
2022/10/30 00:13:26;;;;;;;;;;;;;;;;;;350074;28;762;-65
2022/10/30 00:13:37;;;;;;;;;;;;;;;;;;350048;28;924;-65
2022/10/30 00:13:48;;;;;;;;;;;;;;;;;;350033;28;857;-66
2022/10/30 00:13:58;;;;;;;;;;;;;;;;;;349671;28;1399;-66
2022/10/30 00:14:08;;;;;;;;;;;;;;;;;;350066;28;920;-66
2022/10/30 00:14:18;;;;;;;;;;;;;;;;;;350022;28;992;-65
2022/10/30 00:14:29;;;;;;;;;;;;;;;;;;350024;28;920;-65
2022/10/30 00:14:39;;;;;;;;;;;;;;;;;;349718;28;2072;-65
2022/10/30 00:14:49;;;;;;;;;;;;;;;;;;350623;28;1717;-66
2022/10/30 00:15:00;;;;;;;;;;;;;;;;;;352796;28;920;-65
2022/10/30 00:15:10;;;;;;;;;;;;;;;;;;352897;28;786;-65
2022/10/30 00:15:20;;;;;;;;;;;;;;;;;;352831;28;905;-65
2022/10/30 00:15:31;;;;;;;;;;;;;;;;;;352841;28;987;-65
2022/10/30 00:15:51;;;;;;;;;;;;;;;;;;352850;28;927;-65
2022/10/30 00:16:03;;;;;;;;;;;;;;;;;;352820;28;905;-65
2022/10/30 00:16:13;;;;;;;;;;;;;;;;;;352836;28;928;-65
2022/10/30 00:16:23;;;;;;;;;;;;;;;;;;352885;28;900;-65
2022/10/30 00:16:34;;;;;;;;;;;;;;;;;;352818;28;1008;-65
2022/10/30 00:16:44;;;;;;;;;;;;;;;;;;352782;28;975;-66
2022/10/30 00:16:54;;;;;;;;;;;;;;;;;;352812;28;971;-65
2022/10/30 00:17:04;;;;;;;;;;;;;;;;;;352818;28;762;-65
2022/10/30 00:17:14;;;;;;;;;;;;;;;;;;352866;28;952;-65
2022/10/30 00:17:25;;;;;;;;;;;;;;;;;;352826;28;913;-66
2022/10/30 00:17:35;;;;;;;;;;;;;;;;;;352899;28;920;-65
2022/10/30 00:17:45;;;;;;;;;;;;;;;;;;352856;28;896;-65
2022/10/30 00:17:55;;;;;;;;;;;;;;;;;;352617;28;994;-65
2022/10/30 00:18:05;;;;;;;;;;;;;;;;;;352776;28;951;-66
2022/10/30 00:18:16;;;;;;;;;;;;;;;;;;352868;28;956;-65
2022/10/30 00:18:26;;;;;;;;;;;;;;;;;;352874;28;936;-65
2022/10/30 00:18:38;;;;;;;;;;;;;;;;;;352809;28;762;-65
2022/10/30 00:18:48;;;;;;;;;;;;;;;;;;352751;28;988;-65
2022/10/30 00:18:58;;;;;;;;;;;;;;;;;;352798;28;919;-65
2022/10/30 00:19:08;;;;;;;;;;;;;;;;;;352881;28;786;-66
2022/10/30 00:19:18;;;;;;;;;;;;;;;;;;352791;28;957;-66
2022/10/30 00:19:29;;;;;;;;;;;;;;;;;;352833;28;821;-66
2022/10/30 00:19:39;;;;;;;;;;;;;;;;;;352737;28;1329;-66
2022/10/30 00:19:49;;;;;;;;;;;;;;;;;;352774;28;1048;-66
2022/10/30 00:19:59;;;;;;;;;;;;;;;;;;352784;28;834;-65
2022/10/30 00:20:10;;;;;;;;;;;;;;;;;;350335;28;1371;-66
2022/10/30 00:20:20;;;;;;;;;;;;;;;;;;351414;28;916;-66
2022/10/30 00:20:30;;;;;;;;;;;;;;;;;;351371;28;1000;-65
2022/10/30 00:20:40;;;;;;;;;;;;;;;;;;351381;28;917;-65
2022/10/30 00:20:50;;;;;;;;;;;;;;;;;;351467;28;920;-65
2022/10/30 00:21:05;;;;;;;;;;;;;;;;;;351360;28;904;-65
2022/10/30 00:21:15;;;;;;;;;;;;;;;;;;351422;28;924;-65
2022/10/30 00:21:25;;;;;;;;;;;;;;;;;;351359;28;1124;-65
2022/10/30 00:21:36;;;;;;;;;;;;;;;;;;351454;28;916;-66
2022/10/30 00:21:46;;;;;;;;;;;;;;;;;;351455;28;928;-65
2022/10/30 00:21:56;;;;;;;;;;;;;;;;;;351374;28;837;-66
2022/10/30 00:22:06;;;;;;;;;;;;;;;;;;351440;28;917;-66
2022/10/30 00:22:17;;;;;;;;;;;;;;;;;;351454;28;924;-66
2022/10/30 00:22:27;;;;;;;;;;;;;;;;;;351394;28;920;-65
2022/10/30 00:22:37;;;;;;;;;;;;;;;;;;351405;28;956;-65
2022/10/30 00:22:47;;;;;;;;;;;;;;;;;;351398;28;920;-65
2022/10/30 00:22:58;;;;;;;;;;;;;;;;;;351418;28;778;-66
2022/10/30 00:23:08;;;;;;;;;;;;;;;;;;351446;28;924;-66
2022/10/30 00:23:19;;;;;;;;;;;;;;;;;;351439;28;794;-65
2022/10/30 00:23:29;;;;;;;;;;;;;;;;;;351415;28;873;-66
2022/10/30 00:23:46;;;;;;;;;;;;;;;;;;351415;28;1059;-66
2022/10/30 00:23:57;;;;;;;;;;;;;;;;;;351426;28;920;-65
2022/10/30 00:24:07;;;;;;;;;;;;;;;;;;351396;28;860;-65
2022/10/30 00:24:17;;;;;;;;;;;;;;;;;;351428;28;785;-65
2022/10/30 00:24:28;;;;;;;;;;;;;;;;;;351437;28;909;-65
2022/10/30 00:24:38;;;;;;;;;;;;;;;;;;351406;28;1973;-65
2022/10/30 00:24:48;;;;;;;;;;;;;;;;;;351355;28;888;-65
2022/10/30 00:24:58;;;;;;;;;;;;;;;;;;351431;28;1101;-65
2022/10/30 00:25:08;;;;;;;;;;;;;;;;;;351458;28;888;-66
2022/10/30 00:25:19;;;;;;;;;;;;;;;;;;351431;28;861;-66
2022/10/30 00:25:29;;;;;;;;;;;;;;;;;;351398;28;967;-66
2022/10/30 00:25:39;;;;;;;;;;;;;;;;;;351420;28;894;-66
2022/10/30 00:25:49;;;;;;;;;;;;;;;;;;351282;28;1008;-65
2022/10/30 00:26:03;;;;;;;;;;;;;;;;;;351421;28;975;-65
2022/10/30 00:26:14;;;;;;;;;;;;;;;;;;351387;28;960;-66
2022/10/30 00:26:24;;;;;;;;;;;;;;;;;;351370;28;932;-66
2022/10/30 00:26:34;;;;;;;;;;;;;;;;;;351410;28;900;-65
2022/10/30 00:26:45;;;;;;;;;;;;;;;;;;351459;28;837;-65
2022/10/30 00:26:55;;;;;;;;;;;;;;;;;;351369;28;948;-65
2022/10/30 00:27:05;;;;;;;;;;;;;;;;;;351422;28;842;-65
2022/10/30 00:27:15;;;;;;;;;;;;;;;;;;351361;28;1363;-66
2022/10/30 00:27:26;;;;;;;;;;;;;;;;;;351415;28;905;-66
2022/10/30 00:27:36;;;;;;;;;;;;;;;;;;351406;28;909;-66
2022/10/30 00:27:46;;;;;;;;;;;;;;;;;;351434;28;846;-66
2022/10/30 00:27:56;;;;;;;;;;;;;;;;;;351404;28;983;-66
2022/10/30 00:28:07;;;;;;;;;;;;;;;;;;351368;28;849;-66
2022/10/30 00:28:17;;;;;;;;;;;;;;;;;;351411;28;992;-65
2022/10/30 00:28:27;;;;;;;;;;;;;;;;;;351435;28;913;-66
2022/10/30 00:28:37;;;;;;;;;;;;;;;;;;351386;28;1106;-65
2022/10/30 00:28:49;;;;;;;;;;;;;;;;;;351412;28;916;-66
2022/10/30 00:28:59;;;;;;;;;;;;;;;;;;351286;28;936;-65
2022/10/30 00:29:09;;;;;;;;;;;;;;;;;;351355;28;888;-65
2022/10/30 00:29:22;;;;;;;;;;;;;;;;;;351384;28;928;-65
2022/10/30 00:29:32;;;;;;;;;;;;;;;;;;351405;28;745;-66
2022/10/30 00:29:42;;;;;;;;;;;;;;;;;;351405;28;774;-66
2022/10/30 00:29:53;;;;;;;;;;;;;;;;;;351454;28;968;-65
2022/10/30 00:30:03;;;;;;;;;;;;;;;;;;351460;28;849;-66
2022/10/30 00:30:15;;;;;;;;;;;;;;;;;;351374;28;822;-66
2022/10/30 00:30:25;;;;;;;;;;;;;;;;;;351413;28;794;-66
2022/10/30 00:30:36;;;;;;;;;;;;;;;;;;351391;28;865;-65
2022/10/30 00:30:46;;;;;;;;;;;;;;;;;;351379;28;976;-66
2022/10/30 00:31:00;;;;;;;;;;;;;;;;;;351430;28;972;-65
2022/10/30 00:31:10;;;;;;;;;;;;;;;;;;351384;28;841;-66
2022/10/30 00:31:21;;;;;;;;;;;;;;;;;;351430;28;905;-66
2022/10/30 00:31:31;;;;;;;;;;;;;;;;;;351427;28;773;-66
2022/10/30 00:31:41;;;;;;;;;;;;;;;;;;351422;28;901;-65
2022/10/30 00:31:51;;;;;;;;;;;;;;;;;;351432;28;861;-66
2022/10/30 00:32:02;;;;;;;;;;;;;;;;;;351412;28;921;-65
2022/10/30 00:32:12;;;;;;;;;;;;;;;;;;351220;28;1143;-66
2022/10/30 00:32:22;;;;;;;;;;;;;;;;;;351452;28;778;-66
2022/10/30 00:32:32;;;;;;;;;;;;;;;;;;351481;28;790;-66
2022/10/30 00:32:43;;;;;;;;;;;;;;;;;;351397;28;968;-66
2022/10/30 00:32:53;;;;;;;;;;;;;;;;;;351404;28;972;-66
2022/10/30 00:33:03;;;;;;;;;;;;;;;;;;351433;28;988;-66
2022/10/30 00:33:13;;;;;;;;;;;;;;;;;;351322;28;842;-65
2022/10/30 00:33:23;;;;;;;;;;;;;;;;;;351463;28;921;-66
2022/10/30 00:33:34;;;;;;;;;;;;;;;;;;351404;28;872;-65
2022/10/30 00:33:47;;;;;;;;;;;;;;;;;;351358;28;1055;-66
2022/10/30 00:33:58;;;;;;;;;;;;;;;;;;351420;28;912;-66
2022/10/30 00:34:08;;;;;;;;;;;;;;;;;;350909;28;1481;-66
2022/10/30 00:34:18;;;;;;;;;;;;;;;;;;350317;28;1099;-66
2022/10/30 00:34:28;;;;;;;;;;;;;;;;;;351425;28;925;-66
2022/10/30 00:34:39;;;;;;;;;;;;;;;;;;351363;28;776;-66
2022/10/30 00:34:49;;;;;;;;;;;;;;;;;;351463;28;845;-66
2022/10/30 00:34:59;;;;;;;;;;;;;;;;;;351407;28;1012;-65
2022/10/30 00:35:09;;;;;;;;;;;;;;;;;;351427;28;971;-65
2022/10/30 00:35:20;;;;;;;;;;;;;;;;;;351401;28;810;-65
2022/10/30 00:35:30;;;;;;;;;;;;;;;;;;351487;28;912;-65
2022/10/30 00:35:46;;;;;;;;;;;;;;;;;;351447;28;979;-65
2022/10/30 00:35:56;;;;;;;;;;;;;;;;;;351484;28;932;-66
2022/10/30 00:36:07;;;;;;;;;;;;;;;;;;351445;28;857;-65
2022/10/30 00:36:17;;;;;;;;;;;;;;;;;;351444;28;769;-66
2022/10/30 00:36:27;;;;;;;;;;;;;;;;;;351336;28;1050;-66
2022/10/30 00:36:38;;;;;;;;;;;;;;;;;;351443;28;888;-65
2022/10/30 00:36:48;;;;;;;;;;;;;;;;;;351423;28;909;-66
2022/10/30 00:36:58;;;;;;;;;;;;;;;;;;351455;28;792;-66
2022/10/30 00:37:08;;;;;;;;;;;;;;;;;;351434;28;982;-65
2022/10/30 00:37:18;;;;;;;;;;;;;;;;;;351278;28;983;-65
2022/10/30 00:37:29;;;;;;;;;;;;;;;;;;351422;28;988;-65
2022/10/30 00:37:39;;;;;;;;;;;;;;;;;;351445;28;803;-65
2022/10/30 00:37:49;;;;;;;;;;;;;;;;;;351422;28;975;-66
2022/10/30 00:37:59;;;;;;;;;;;;;;;;;;351391;28;1152;-65
2022/10/30 00:38:10;;;;;;;;;;;;;;;;;;351262;28;1078;-66
2022/10/30 00:38:20;;;;;;;;;;;;;;;;;;351396;28;837;-66
2022/10/30 00:38:30;;;;;;;;;;;;;;;;;;351421;28;924;-66
2022/10/30 00:38:41;;;;;;;;;;;;;;;;;;351404;28;948;-66
2022/10/30 00:38:51;;;;;;;;;;;;;;;;;;351461;28;976;-66
2022/10/30 00:39:02;;;;;;;;;;;;;;;;;;351368;28;929;-66
2022/10/30 00:39:13;;;;;;;;;;;;;;;;;;351443;28;809;-66
2022/10/30 00:39:23;;;;;;;;;;;;;;;;;;351228;28;1142;-66
2022/10/30 00:39:33;;;;;;;;;;;;;;;;;;351364;28;964;-65
2022/10/30 00:39:43;;;;;;;;;;;;;;;;;;351400;28;856;-65
2022/10/30 00:39:53;;;;;;;;;;;;;;;;;;351418;28;917;-66
2022/10/30 00:40:05;;;;;;;;;;;;;;;;;;351336;28;1228;-66
2022/10/30 00:40:16;;;;;;;;;;;;;;;;;;351426;28;885;-66
2022/10/30 00:40:26;;;;;;;;;;;;;;;;;;351246;28;1446;-66
2022/10/30 00:40:36;;;;;;;;;;;;;;;;;;351407;28;912;-66
2022/10/30 00:40:47;;;;;;;;;;;;;;;;;;351436;28;774;-65
2022/10/30 00:40:57;;;;;;;;;;;;;;;;;;351392;28;1059;-66
2022/10/30 00:41:12;;;;;;;;;;;;;;;;;;351344;28;912;-65
2022/10/30 00:41:23;;;;;;;;;;;;;;;;;;351367;28;908;-66
2022/10/30 00:41:33;;;;;;;;;;;;;;;;;;351279;28;984;-65
2022/10/30 00:41:44;;;;;;;;;;;;;;;;;;351358;28;1030;-66
2022/10/30 00:41:54;;;;;;;;;;;;;;;;;;351423;28;786;-66
2022/10/30 00:42:04;;;;;;;;;;;;;;;;;;351412;28;921;-65
2022/10/30 00:42:15;;;;;;;;;;;;;;;;;;351413;28;976;-65
2022/10/30 00:42:28;;;;;;;;;;;;;;;;;;351358;28;940;-66
2022/10/30 00:42:38;;;;;;;;;;;;;;;;;;351421;28;905;-66
2022/10/30 00:42:48;;;;;;;;;;;;;;;;;;351440;28;912;-65
2022/10/30 00:42:58;;;;;;;;;;;;;;;;;;351336;28;1064;-66
2022/10/30 00:43:28;;;;;;;;;;;;;;;;;;351373;28;908;-66
2022/10/30 00:43:39;;;;;;;;;;;;;;;;;;351363;28;928;-66
2022/10/30 00:43:49;;;;;;;;;;;;;;;;;;351365;28;862;-65
2022/10/30 00:43:59;;;;;;;;;;;;;;;;;;351415;28;924;-65
2022/10/30 00:44:28;;;;;;;;;;;;;;;;;;351405;28;1003;-65
2022/10/30 00:44:49;;;;;;;;;;;;;;;;;;351212;28;1914;-66
2022/10/30 00:44:59;;;;;;;;;;;;;;;;;;350384;28;1359;-66
2022/10/30 00:45:14;;;;;;;;;;;;;;;;;;352728;28;932;-65
2022/10/30 00:45:24;;;;;;;;;;;;;;;;;;352759;28;940;-65
2022/10/30 00:45:34;;;;;;;;;;;;;;;;;;352752;28;1012;-66
2022/10/30 00:45:44;;;;;;;;;;;;;;;;;;352733;28;928;-66
2022/10/30 00:45:56;;;;;;;;;;;;;;;;;;352781;28;963;-65
2022/10/30 00:46:21;;;;;;;;;;;;;;;;;;352825;28;928;-65
2022/10/30 00:46:34;;;;;;;;;;;;;;;;;;352769;28;896;-66
2022/10/30 00:46:44;;;;;;;;;;;;;;;;;;352863;28;971;-65
2022/10/30 00:46:54;;;;;;;;;;;;;;;;;;351618;28;1944;-65
2022/10/30 00:47:09;;;;;;;;;;;;;;;;;;352751;28;917;-66
2022/10/30 00:47:22;;;;;;;;;;;;;;;;;;352817;28;936;-66
2022/10/30 00:47:38;;;;;;;;;;;;;;;;;;352792;28;841;-66
2022/10/30 00:47:56;;;;;;;;;;;;;;;;;;352677;28;999;-66
2022/10/30 00:48:08;;;;;;;;;;;;;;;;;;352792;28;1011;-65
2022/10/30 00:48:21;;;;;;;;;;;;;;;;;;352729;28;982;-65
2022/10/30 00:48:32;;;;;;;;;;;;;;;;;;352796;28;944;-66
2022/10/30 00:48:44;;;;;;;;;;;;;;;;;;352789;28;1013;-66
2022/10/30 00:49:07;;;;;;;;;;;;;;;;;;351530;28;1434;-65
2022/10/30 00:49:18;;;;;;;;;;;;;;;;;;351402;28;861;-66
2022/10/30 00:49:30;;;;;;;;;;;;;;;;;;351404;28;834;-65
2022/10/30 00:49:47;;;;;;;;;;;;;;;;;;351383;28;863;-66
2022/10/30 00:50:01;;;;;;;;;;;;;;;;;;351396;28;920;-66
2022/10/30 00:50:15;;;;;;;;;;;;;;;;;;351376;28;917;-66
2022/10/30 00:50:35;;;;;;;;;;;;;;;;;;351366;28;959;-66
2022/10/30 00:50:45;;;;;;;;;;;;;;;;;;351422;28;917;-66
2022/10/30 00:50:58;;;;;;;;;;;;;;;;;;349823;28;1167;-66
2022/10/30 00:51:09;;;;;;;;;;;;;;;;;;349941;28;987;-66
2022/10/30 00:51:20;;;;;;;;;;;;;;;;;;349897;28;984;-65
2022/10/30 00:51:32;;;;;;;;;;;;;;;;;;349919;28;913;-66
2022/10/30 00:51:46;;;;;;;;;;;;;;;;;;349797;28;1137;-66
2022/10/30 00:51:57;;;;;;;;;;;;;;;;;;349826;28;937;-66
2022/10/30 00:52:08;;;;;;;;;;;;;;;;;;349896;28;968;-65
2022/10/30 00:52:19;;;;;;;;;;;;;;;;;;349894;28;948;-66
2022/10/30 00:52:32;;;;;;;;;;;;;;;;;;349874;28;917;-66
2022/10/30 00:52:47;;;;;;;;;;;;;;;;;;349930;28;925;-65
2022/10/30 00:53:10;;;;;;;;;;;;;;;;;;351331;28;991;-65
2022/10/30 00:53:20;;;;;;;;;;;;;;;;;;351406;28;908;-65
2022/10/30 00:53:31;;;;;;;;;;;;;;;;;;351404;28;967;-66
2022/10/30 00:53:41;;;;;;;;;;;;;;;;;;351309;28;755;-66
2022/10/30 00:53:52;;;;;;;;;;;;;;;;;;351382;28;988;-65
2022/10/30 00:54:04;;;;;;;;;;;;;;;;;;351318;28;1008;-66
2022/10/30 00:54:16;;;;;;;;;;;;;;;;;;351306;28;933;-65
2022/10/30 00:54:27;;;;;;;;;;;;;;;;;;351341;28;1078;-66
2022/10/30 00:54:37;;;;;;;;;;;;;;;;;;351381;28;901;-65
2022/10/30 00:54:48;;;;;;;;;;;;;;;;;;351394;28;928;-66
2022/10/30 00:55:02;;;;;;;;;;;;;;;;;;351383;28;913;-65
2022/10/30 00:55:15;;;;;;;;;;;;;;;;;;351227;28;1231;-66
2022/10/30 00:55:28;;;;;;;;;;;;;;;;;;351405;28;912;-65
2022/10/30 00:55:44;;;;;;;;;;;;;;;;;;351366;28;948;-66
2022/10/30 00:55:56;;;;;;;;;;;;;;;;;;351356;28;987;-65
2022/10/30 00:56:07;;;;;;;;;;;;;;;;;;351348;28;1075;-65
2022/10/30 00:56:19;;;;;;;;;;;;;;;;;;351410;28;842;-66
2022/10/30 00:56:30;;;;;;;;;;;;;;;;;;351401;28;881;-66
2022/10/30 00:56:41;;;;;;;;;;;;;;;;;;350547;28;1383;-65
2022/10/30 00:56:52;;;;;;;;;;;;;;;;;;350695;28;1608;-65
2022/10/30 00:57:04;;;;;;;;;;;;;;;;;;349962;28;913;-65
2022/10/30 00:57:14;;;;;;;;;;;;;;;;;;349949;28;1036;-65
2022/10/30 00:57:25;;;;;;;;;;;;;;;;;;350001;28;830;-66
2022/10/30 00:57:37;;;;;;;;;;;;;;;;;;349804;28;1033;-65
2022/10/30 00:57:49;;;;;;;;;;;;;;;;;;349981;28;1003;-66
2022/10/30 00:58:00;;;;;;;;;;;;;;;;;;349989;28;1015;-65
2022/10/30 00:58:13;;;;;;;;;;;;;;;;;;349888;28;869;-65
2022/10/30 00:58:27;;;;;;;;;;;;;;;;;;349998;28;913;-66
2022/10/30 00:58:41;;;;;;;;;;;;;;;;;;350001;28;798;-66
2022/10/30 00:59:08;;;;;;;;;;;;;;;;;;349950;28;924;-65
2022/10/30 00:59:21;;;;;;;;;;;;;;;;;;350000;28;979;-66
2022/10/30 00:59:33;;;;;;;;;;;;;;;;;;349961;28;863;-66
2022/10/30 00:59:44;;;;;;;;;;;;;;;;;;349915;28;924;-65
2022/10/30 00:59:54;;;;;;;;;;;;;;;;;;349957;28;1052;-65
2022/10/30 01:00:05;;;;;;;;;;;;;;;;;;349948;28;996;-65
2022/10/30 01:00:17;;;;;;;;;;;;;;;;;;349934;28;1047;-66
2022/10/30 01:00:28;;;;;;;;;;;;;;;;;;350003;28;925;-65
2022/10/30 01:00:41;;;;;;;;;;;;;;;;;;349970;28;937;-65
2022/10/30 01:00:53;;;;;;;;;;;;;;;;;;350009;28;829;-65
2022/10/30 01:01:06;;;;;;;;;;;;;;;;;;350004;28;916;-65
2022/10/30 01:01:18;;;;;;;;;;;;;;;;;;349999;28;867;-65
2022/10/30 01:01:30;;;;;;;;;;;;;;;;;;350028;28;992;-66
2022/10/30 01:01:42;;;;;;;;;;;;;;;;;;349916;28;1111;-65
2022/10/30 01:01:52;;;;;;;;;;;;;;;;;;349937;28;874;-66
2022/10/30 01:02:03;;;;;;;;;;;;;;;;;;349947;28;909;-65
2022/10/30 01:02:13;;;;;;;;;;;;;;;;;;349972;28;809;-66
2022/10/30 01:02:24;;;;;;;;;;;;;;;;;;349922;28;921;-65
2022/10/30 01:02:35;;;;;;;;;;;;;;;;;;349993;28;917;-66
2022/10/30 01:02:45;;;;;;;;;;;;;;;;;;349981;28;853;-65
2022/10/30 01:02:56;;;;;;;;;;;;;;;;;;349958;28;932;-65
2022/10/30 01:03:06;;;;;;;;;;;;;;;;;;349984;28;937;-65
2022/10/30 01:03:18;;;;;;;;;;;;;;;;;;349973;28;928;-65
2022/10/30 01:03:29;;;;;;;;;;;;;;;;;;349963;28;917;-65
2022/10/30 01:03:39;;;;;;;;;;;;;;;;;;349951;28;1071;-65
2022/10/30 01:03:51;;;;;;;;;;;;;;;;;;349987;28;896;-65
2022/10/30 01:04:03;;;;;;;;;;;;;;;;;;349922;28;996;-65
2022/10/30 01:04:15;;;;;;;;;;;;;;;;;;349954;28;770;-66
2022/10/30 01:04:25;;;;;;;;;;;;;;;;;;349730;28;1123;-66
2022/10/30 01:04:36;;;;;;;;;;;;;;;;;;349873;28;1967;-66
2022/10/30 01:04:48;;;;;;;;;;;;;;;;;;349917;28;1036;-65
2022/10/30 01:04:59;;;;;;;;;;;;;;;;;;349993;28;856;-65
2022/10/30 01:05:13;;;;;;;;;;;;;;;;;;349920;28;948;-66
2022/10/30 01:05:26;;;;;;;;;;;;;;;;;;349934;28;853;-65
2022/10/30 01:05:37;;;;;;;;;;;;;;;;;;349922;28;1083;-66
2022/10/30 01:05:50;;;;;;;;;;;;;;;;;;349921;28;868;-66
2022/10/30 01:06:03;;;;;;;;;;;;;;;;;;349998;28;972;-65
2022/10/30 01:06:14;;;;;;;;;;;;;;;;;;349840;28;971;-65
2022/10/30 01:06:25;;;;;;;;;;;;;;;;;;349976;28;929;-65
2022/10/30 01:06:37;;;;;;;;;;;;;;;;;;349891;28;1027;-66
2022/10/30 01:06:50;;;;;;;;;;;;;;;;;;350012;28;865;-66
2022/10/30 01:07:05;;;;;;;;;;;;;;;;;;349924;28;817;-65
2022/10/30 01:07:15;;;;;;;;;;;;;;;;;;349997;28;1132;-66
2022/10/30 01:07:25;;;;;;;;;;;;;;;;;;349903;28;921;-66
2022/10/30 01:07:36;;;;;;;;;;;;;;;;;;349978;28;897;-66
2022/10/30 01:07:46;;;;;;;;;;;;;;;;;;350004;28;802;-65
2022/10/30 01:07:56;;;;;;;;;;;;;;;;;;349939;28;1057;-66
2022/10/30 01:08:06;;;;;;;;;;;;;;;;;;349974;28;971;-66
2022/10/30 01:08:17;;;;;;;;;;;;;;;;;;350012;28;778;-65
2022/10/30 01:08:28;;;;;;;;;;;;;;;;;;349955;28;798;-66
2022/10/30 01:08:38;;;;;;;;;;;;;;;;;;349903;28;984;-65
2022/10/30 01:08:49;;;;;;;;;;;;;;;;;;349952;28;1008;-65
2022/10/30 01:09:00;;;;;;;;;;;;;;;;;;349940;28;842;-65
2022/10/30 01:09:10;;;;;;;;;;;;;;;;;;349919;28;929;-65
2022/10/30 01:09:21;;;;;;;;;;;;;;;;;;349964;28;1005;-65
2022/10/30 01:09:32;;;;;;;;;;;;;;;;;;350005;28;761;-65
2022/10/30 01:09:44;;;;;;;;;;;;;;;;;;350011;28;871;-66
2022/10/30 01:09:54;;;;;;;;;;;;;;;;;;349989;28;977;-66
2022/10/30 01:10:04;;;;;;;;;;;;;;;;;;349946;28;846;-65
2022/10/30 01:10:16;;;;;;;;;;;;;;;;;;349950;28;995;-65
2022/10/30 01:10:26;;;;;;;;;;;;;;;;;;349983;28;988;-65
2022/10/30 01:10:36;;;;;;;;;;;;;;;;;;349748;28;1196;-66
2022/10/30 01:10:47;;;;;;;;;;;;;;;;;;350002;28;917;-66
2022/10/30 01:10:58;;;;;;;;;;;;;;;;;;349936;28;965;-66
2022/10/30 01:11:09;;;;;;;;;;;;;;;;;;349900;28;932;-65
2022/10/30 01:11:19;;;;;;;;;;;;;;;;;;349986;28;802;-65
2022/10/30 01:11:30;;;;;;;;;;;;;;;;;;349930;28;1783;-65
2022/10/30 01:11:40;;;;;;;;;;;;;;;;;;350239;28;902;-66
2022/10/30 01:11:51;;;;;;;;;;;;;;;;;;350043;28;882;-66
2022/10/30 01:12:01;;;;;;;;;;;;;;;;;;351399;28;976;-65
2022/10/30 01:12:11;;;;;;;;;;;;;;;;;;351305;28;1080;-65
2022/10/30 01:12:21;;;;;;;;;;;;;;;;;;351400;28;842;-66
2022/10/30 01:12:31;;;;;;;;;;;;;;;;;;351374;28;1020;-65
2022/10/30 01:12:43;;;;;;;;;;;;;;;;;;351280;28;1043;-65
2022/10/30 01:12:54;;;;;;;;;;;;;;;;;;351375;28;1068;-65
2022/10/30 01:13:04;;;;;;;;;;;;;;;;;;351344;28;865;-65
2022/10/30 01:13:16;;;;;;;;;;;;;;;;;;351305;28;972;-65
2022/10/30 01:13:28;;;;;;;;;;;;;;;;;;351404;28;976;-66
2022/10/30 01:13:40;;;;;;;;;;;;;;;;;;351399;28;857;-66
2022/10/30 01:13:51;;;;;;;;;;;;;;;;;;351165;28;936;-65
2022/10/30 01:14:04;;;;;;;;;;;;;;;;;;351213;28;881;-65
2022/10/30 01:14:16;;;;;;;;;;;;;;;;;;351069;28;1122;-65
2022/10/30 01:14:26;;;;;;;;;;;;;;;;;;350356;28;1937;-65
2022/10/30 01:14:40;;;;;;;;;;;;;;;;;;350230;28;1699;-65
2022/10/30 01:14:52;;;;;;;;;;;;;;;;;;351599;28;774;-65
2022/10/30 01:15:02;;;;;;;;;;;;;;;;;;351608;28;2059;-65
2022/10/30 01:15:13;;;;;;;;;;;;;;;;;;352688;28;1028;-65
2022/10/30 01:15:29;;;;;;;;;;;;;;;;;;352781;28;980;-66
2022/10/30 01:15:42;;;;;;;;;;;;;;;;;;352835;28;865;-66
2022/10/30 01:16:08;;;;;;;;;;;;;;;;;;352482;28;1128;-66
2022/10/30 01:16:25;;;;;;;;;;;;;;;;;;352570;28;1897;-67
2022/10/30 01:16:53;;;;;;;;;;;;;;;;;;352187;28;1577;-65
2022/10/30 01:17:19;;;;;;;;;;;;;;;;;;352733;28;917;-66
2022/10/30 01:17:48;;;;;;;;;;;;;;;;;;352761;28;868;-65
2022/10/30 01:18:16;;;;;;;;;;;;;;;;;;352731;28;1011;-65
2022/10/30 01:18:32;;;;;;;;;;;;;;;;;;352740;28;837;-65
2022/10/30 01:18:51;;;;;;;;;;;;;;;;;;352784;28;766;-65
2022/10/30 01:19:07;;;;;;;;;;;;;;;;;;352712;28;1011;-65
2022/10/30 01:19:26;;;;;;;;;;;;;;;;;;352798;28;987;-65
2022/10/30 01:19:46;;;;;;;;;;;;;;;;;;352720;28;1266;-65
2022/10/30 01:20:08;;;;;;;;;;;;;;;;;;352690;28;1079;-65
2022/10/30 01:20:41;;;;;;;;;;;;;;;;;;352734;28;976;-65
2022/10/30 01:21:13;;;;;;;;;;;;;;;;;;352156;28;1249;-66
2022/10/30 01:21:29;;;;;;;;;;;;;;;;;;352787;28;802;-65
2022/10/30 01:21:40;;;;;;;;;;;;;;;;;;352703;28;933;-66
2022/10/30 01:21:50;;;;;;;;;;;;;;;;;;352751;28;975;-65
2022/10/30 01:22:17;;;;;;;;;;;;;;;;;;352756;28;873;-65
2022/10/30 01:22:34;;;;;;;;;;;;;;;;;;352787;28;778;-65
2022/10/30 01:23:02;;;;;;;;;;;;;;;;;;352773;28;806;-66
2022/10/30 01:23:30;;;;;;;;;;;;;;;;;;352611;28;988;-66
2022/10/30 01:23:59;;;;;;;;;;;;;;;;;;352730;28;865;-65
2022/10/30 01:24:15;;;;;;;;;;;;;;;;;;352751;28;964;-65
2022/10/30 01:24:45;;;;;;;;;;;;;;;;;;352742;28;861;-65
2022/10/30 01:24:58;;;;;;;;;;;;;;;;;;352671;28;1172;-65
2022/10/30 01:25:27;;;;;;;;;;;;;;;;;;352703;28;913;-65